createdAt,value
2024-02-10T00:01:58.214Z,18.87
2024-02-10T00:04:25.183Z,18.02
2024-02-10T00:06:55.366Z,16.83
2024-02-10T00:09:22.188Z,17.85
2024-02-10T00:11:49.063Z,19.38
2024-02-10T00:14:17.712Z,18.03
2024-02-10T00:16:45.977Z,17.90
2024-02-10T00:19:13.005Z,18.67
2024-02-10T00:21:40.065Z,18.48
2024-02-10T00:24:07.054Z,18.67
2024-02-10T00:26:34.348Z,18.77
2024-02-10T00:29:03.144Z,17.52
2024-02-10T00:31:31.436Z,23.65
2024-02-10T00:33:59.050Z,19.05
2024-02-10T00:36:26.328Z,19.58
2024-02-10T00:38:53.279Z,18.50
2024-02-10T00:41:20.916Z,19.77
2024-02-10T00:43:48.512Z,19.33
2024-02-10T00:46:17.144Z,16.65
2024-02-10T00:48:45.133Z,17.23
2024-02-10T00:51:12.006Z,17.37
2024-02-10T00:53:41.724Z,20.67
2024-02-10T00:56:11.570Z,21.75
2024-02-10T00:58:43.031Z,18.58
2024-02-10T01:01:14.571Z,20.23
2024-02-10T01:03:46.183Z,18.43
2024-02-10T01:06:14.187Z,17.08
2024-02-10T01:08:47.708Z,18.48
2024-02-10T01:11:15.209Z,17.55
2024-02-10T01:13:45.128Z,17.70
2024-02-10T01:16:16.637Z,19.53
2024-02-10T01:18:44.610Z,18.52
2024-02-10T01:21:12.150Z,21.05
2024-02-10T01:23:43.854Z,21.00
2024-02-10T01:26:11.222Z,19.50
2024-02-10T01:28:38.339Z,19.83
2024-02-10T01:31:07.427Z,19.27
2024-02-10T01:33:34.954Z,18.52
2024-02-10T01:36:04.473Z,18.63
2024-02-10T01:38:31.802Z,17.45
2024-02-10T01:40:58.710Z,17.27
2024-02-10T01:43:28.671Z,16.88
2024-02-10T01:45:56.806Z,19.00
2024-02-10T01:48:23.695Z,17.73
2024-02-10T01:50:50.720Z,17.70
2024-02-10T01:53:17.548Z,18.53
2024-02-10T01:55:44.377Z,19.05
2024-02-10T01:58:12.236Z,17.70
2024-02-10T02:00:39.473Z,18.38
2024-02-10T02:03:06.422Z,17.02
2024-02-10T02:05:35.971Z,19.37
2024-02-10T02:08:03.790Z,18.75
2024-02-10T02:10:30.879Z,19.90
2024-02-10T02:12:59.156Z,17.85
2024-02-10T02:15:31.036Z,21.35
2024-02-10T02:18:01.137Z,17.90
2024-02-10T02:20:29.821Z,18.65
2024-02-10T02:22:56.829Z,17.40
2024-02-10T02:25:24.698Z,17.13
2024-02-10T02:27:51.633Z,18.92
2024-02-10T02:30:19.065Z,19.43
2024-02-10T02:32:45.956Z,19.48
2024-02-10T02:35:13.096Z,16.73
2024-02-10T02:37:42.447Z,17.60
2024-02-10T02:40:10.442Z,17.45
2024-02-10T02:42:37.335Z,17.37
2024-02-10T02:45:06.451Z,17.83
2024-02-10T02:47:33.818Z,17.75
2024-02-10T02:50:00.869Z,17.77
2024-02-10T02:52:28.901Z,19.08
2024-02-10T02:54:56.095Z,14.53
2024-02-10T02:57:24.349Z,18.45
2024-02-10T02:59:51.726Z,17.77
2024-02-10T03:02:18.556Z,17.38
2024-02-10T03:04:45.750Z,17.70
2024-02-10T03:07:14.693Z,17.90
2024-02-10T03:09:45.837Z,16.45
2024-02-10T03:12:13.142Z,17.88
2024-02-10T03:14:43.125Z,16.75
2024-02-10T03:17:12.104Z,18.48
2024-02-10T03:19:39.143Z,15.63
2024-02-10T03:22:07.175Z,17.13
2024-02-10T03:24:34.388Z,17.52
2024-02-10T03:27:04.325Z,17.48
2024-02-10T03:29:31.840Z,17.20
2024-02-10T03:31:58.698Z,14.57
2024-02-10T03:34:25.643Z,15.82
2024-02-10T03:36:52.608Z,18.05
2024-02-10T03:39:19.743Z,15.82
2024-02-10T03:41:46.616Z,17.75
2024-02-10T03:44:13.494Z,15.87
2024-02-10T03:46:40.786Z,16.15
2024-02-10T03:49:07.645Z,16.13
2024-02-10T03:51:34.564Z,16.83
2024-02-10T03:54:01.400Z,16.67
2024-02-10T03:56:29.194Z,16.23
2024-02-10T03:58:56.265Z,15.52
2024-02-10T04:01:23.225Z,16.17
2024-02-10T04:03:50.324Z,15.85
2024-02-10T04:06:17.711Z,15.13
2024-02-10T04:08:48.569Z,15.67
2024-02-10T04:11:18.360Z,16.52
2024-02-10T04:13:45.668Z,17.00
2024-02-10T04:16:14.430Z,16.02
2024-02-10T04:18:41.977Z,16.00
2024-02-10T04:21:09.056Z,16.23
2024-02-10T04:23:36.455Z,16.73
2024-02-10T04:26:03.574Z,15.88
2024-02-10T04:28:30.502Z,18.02
2024-02-10T04:30:57.349Z,15.52
2024-02-10T04:33:24.527Z,15.20
2024-02-10T04:35:51.614Z,16.00
2024-02-10T04:38:18.505Z,14.98
2024-02-10T04:40:46.534Z,15.30
2024-02-10T04:43:14.152Z,17.25
2024-02-10T04:45:47.070Z,17.10
2024-02-10T04:48:14.477Z,14.85
2024-02-10T04:50:42.443Z,15.70
2024-02-10T04:53:09.347Z,16.42
2024-02-10T04:55:37.296Z,15.55
2024-02-10T04:58:04.598Z,18.27
2024-02-10T05:00:33.443Z,17.15
2024-02-10T05:03:04.198Z,18.33
2024-02-10T05:05:31.357Z,16.40
2024-02-10T05:07:59.536Z,17.80
2024-02-10T05:10:26.719Z,15.40
2024-02-10T05:12:53.811Z,15.15
2024-02-10T05:15:22.534Z,17.85
2024-02-10T05:17:51.361Z,19.08
2024-02-10T05:20:22.752Z,17.55
2024-02-10T05:22:59.391Z,16.27
2024-02-10T05:25:36.440Z,16.98
2024-02-10T05:28:03.994Z,16.55
2024-02-10T05:30:30.888Z,14.80
2024-02-10T05:33:01.746Z,16.40
2024-02-10T05:35:31.333Z,17.10
2024-02-10T05:38:04.634Z,15.90
2024-02-10T05:40:31.965Z,16.95
2024-02-10T05:43:01.204Z,16.17
2024-02-10T05:45:32.473Z,17.38
2024-02-10T05:47:59.501Z,16.17
2024-02-10T05:50:26.611Z,15.30
2024-02-10T05:52:54.394Z,15.27
2024-02-10T05:55:27.812Z,15.05
2024-02-10T05:58:05.324Z,16.17
2024-02-10T06:00:32.918Z,16.40
2024-02-10T06:03:00.972Z,17.00
2024-02-10T06:05:29.647Z,14.52
2024-02-10T06:07:58.538Z,17.83
2024-02-10T06:10:25.959Z,15.75
2024-02-10T06:12:53.995Z,15.37
2024-02-10T06:15:21.208Z,15.70
2024-02-10T06:17:56.358Z,15.13
2024-02-10T06:20:27.217Z,16.20
2024-02-10T06:22:55.164Z,15.88
2024-02-10T06:25:29.331Z,13.10
2024-02-10T06:27:58.540Z,14.10
2024-02-10T06:30:29.056Z,14.75
2024-02-10T06:32:59.905Z,15.15
2024-02-10T06:35:27.312Z,15.30
2024-02-10T06:37:56.514Z,16.23
2024-02-10T06:40:24.490Z,15.50
2024-02-10T06:42:52.852Z,15.73
2024-02-10T06:45:23.628Z,15.05
2024-02-10T06:47:53.763Z,13.77
2024-02-10T06:50:28.380Z,14.10
2024-02-10T06:52:56.104Z,16.27
2024-02-10T06:55:28.571Z,16.15
2024-02-10T06:57:57.058Z,15.00
2024-02-10T07:00:24.214Z,14.73
2024-02-10T07:02:52.452Z,14.27
2024-02-10T07:05:20.816Z,13.48
2024-02-10T07:07:50.101Z,13.38
2024-02-10T07:10:19.497Z,12.93
2024-02-10T07:12:47.695Z,14.10
2024-02-10T07:15:15.853Z,13.57
2024-02-10T07:17:47.720Z,12.65
2024-02-10T07:20:19.672Z,13.05
2024-02-10T07:22:56.596Z,12.77
2024-02-10T07:25:27.261Z,13.38
2024-02-10T07:27:54.520Z,14.83
2024-02-10T07:30:21.995Z,13.27
2024-02-10T07:32:49.217Z,14.32
2024-02-10T07:35:17.565Z,13.73
2024-02-10T07:37:49.768Z,13.82
2024-02-10T07:40:18.149Z,12.50
2024-02-10T07:42:45.008Z,14.20
2024-02-10T07:45:12.274Z,12.93
2024-02-10T07:47:39.122Z,14.32
2024-02-10T07:50:08.114Z,15.10
2024-02-10T07:52:35.139Z,13.30
2024-02-10T07:55:02.130Z,13.77
2024-02-10T07:57:30.548Z,16.67
2024-02-10T07:59:57.801Z,17.30
2024-02-10T08:02:27.446Z,15.02
2024-02-10T08:04:56.156Z,16.63
2024-02-10T08:07:31.691Z,15.38
2024-02-10T08:09:59.709Z,14.45
2024-02-10T08:12:31.402Z,14.38
2024-02-10T08:14:58.581Z,16.17
2024-02-10T08:17:27.576Z,14.20
2024-02-10T08:20:01.585Z,16.33
2024-02-10T08:22:31.390Z,16.38
2024-02-10T08:24:59.985Z,15.80
2024-02-10T08:27:27.593Z,17.33
2024-02-10T08:29:54.962Z,18.13
2024-02-10T08:32:22.009Z,16.17
2024-02-10T08:34:49.772Z,15.30
2024-02-10T08:37:17.076Z,16.38
2024-02-10T08:39:47.585Z,16.38
2024-02-10T08:42:15.171Z,16.50
2024-02-10T08:44:42.165Z,17.85
2024-02-10T08:47:09.030Z,16.55
2024-02-10T08:49:42.486Z,18.33
2024-02-10T08:52:17.828Z,15.63
2024-02-10T08:54:45.321Z,15.90
2024-02-10T08:57:12.205Z,15.48
2024-02-10T08:59:43.360Z,18.40
2024-02-10T09:02:10.574Z,16.23
2024-02-10T09:04:41.526Z,18.08
2024-02-10T09:07:08.908Z,20.80
2024-02-10T09:09:36.167Z,17.13
2024-02-10T09:12:03.246Z,17.55
2024-02-10T09:14:31.407Z,17.75
2024-02-10T09:16:58.714Z,19.13
2024-02-10T09:19:26.517Z,18.60
2024-02-10T09:21:56.375Z,18.45
2024-02-10T09:24:24.863Z,17.52
2024-02-10T09:26:52.985Z,15.80
2024-02-10T09:29:22.820Z,16.50
2024-02-10T09:31:50.642Z,16.97
2024-02-10T09:34:19.812Z,18.52
2024-02-10T09:36:46.831Z,19.23
2024-02-10T09:39:14.262Z,20.52
2024-02-10T09:41:42.375Z,19.13
2024-02-10T09:44:11.530Z,17.60
2024-02-10T09:46:38.800Z,17.65
2024-02-10T09:49:11.378Z,17.95
2024-02-10T09:51:45.421Z,19.30
2024-02-10T09:54:15.286Z,18.60
2024-02-10T09:56:43.127Z,17.77
2024-02-10T09:59:13.601Z,17.17
2024-02-10T10:01:40.839Z,18.52
2024-02-10T10:04:13.793Z,19.33
2024-02-10T10:06:44.892Z,20.45
2024-02-10T10:09:14.045Z,19.53
2024-02-10T10:11:42.140Z,19.65
2024-02-10T10:14:14.959Z,17.52
2024-02-10T10:16:42.518Z,20.88
2024-02-10T10:19:09.749Z,18.85
2024-02-10T10:21:37.665Z,19.40
2024-02-10T10:24:04.865Z,22.23
2024-02-10T10:26:32.890Z,20.80
2024-02-10T10:29:00.469Z,21.95
2024-02-10T10:31:27.541Z,22.45
2024-02-10T10:33:54.992Z,21.97
2024-02-10T10:36:21.913Z,21.88
2024-02-10T10:38:48.726Z,23.13
2024-02-10T10:41:20.430Z,23.27
2024-02-10T10:43:47.586Z,22.75
2024-02-10T10:46:18.559Z,21.70
2024-02-10T10:48:46.100Z,21.10
2024-02-10T10:51:14.003Z,22.50
2024-02-10T10:53:47.300Z,22.13
2024-02-10T10:56:16.045Z,24.13
2024-02-10T10:58:51.176Z,21.77
2024-02-10T11:01:21.925Z,22.02
2024-02-10T11:03:49.525Z,27.33
2024-02-10T11:06:16.507Z,21.85
2024-02-10T11:08:46.735Z,25.40
2024-02-10T11:11:15.412Z,23.53
2024-02-10T11:13:42.309Z,22.15
2024-02-10T11:16:16.615Z,21.67
2024-02-10T11:18:47.310Z,21.30
2024-02-10T11:21:23.301Z,25.25
2024-02-10T11:24:01.663Z,23.20
2024-02-10T11:26:29.224Z,24.45
2024-02-10T11:29:02.683Z,21.02
2024-02-10T11:31:35.221Z,21.67
2024-02-10T11:34:16.989Z,22.35
2024-02-10T11:36:54.618Z,22.00
2024-02-10T11:39:24.118Z,21.67
2024-02-10T11:42:01.486Z,23.83
2024-02-10T11:44:31.057Z,21.63
2024-02-10T11:47:00.853Z,23.00
2024-02-10T11:49:28.568Z,21.67
2024-02-10T11:51:58.948Z,20.73
2024-02-10T11:54:32.530Z,20.38
2024-02-10T11:57:02.615Z,21.85
2024-02-10T11:59:30.760Z,22.20
2024-02-10T12:01:57.906Z,24.03
2024-02-10T12:04:26.861Z,22.33
2024-02-10T12:06:53.953Z,25.60
2024-02-10T12:09:20.794Z,23.55
2024-02-10T12:11:47.681Z,27.13
2024-02-10T12:14:15.810Z,26.73
2024-02-10T12:16:46.562Z,26.02
2024-02-10T12:19:14.892Z,28.02
2024-02-10T12:21:46.002Z,27.15
2024-02-10T12:24:13.033Z,31.20
2024-02-10T12:26:39.863Z,27.50
2024-02-10T12:29:12.865Z,27.38
2024-02-10T12:31:41.482Z,28.17
2024-02-10T12:34:10.502Z,28.73
2024-02-10T12:36:37.552Z,28.80
2024-02-10T12:39:07.152Z,28.63
2024-02-10T12:41:34.554Z,27.65
2024-02-10T12:44:01.399Z,25.85
2024-02-10T12:46:29.435Z,30.63
2024-02-10T12:48:56.861Z,27.10
2024-02-10T12:51:25.404Z,26.33
2024-02-10T12:53:55.765Z,27.15
2024-02-10T12:56:26.447Z,27.88
2024-02-10T12:58:53.267Z,26.17
2024-02-10T13:01:20.531Z,27.02
2024-02-10T13:03:47.426Z,26.93
2024-02-10T13:06:14.343Z,27.95
2024-02-10T13:08:41.328Z,27.65
2024-02-10T13:11:08.839Z,28.35
2024-02-10T13:13:36.253Z,27.25
2024-02-10T13:16:03.206Z,27.57
2024-02-10T13:18:33.180Z,30.08
2024-02-10T13:21:02.932Z,28.58
2024-02-10T13:23:29.791Z,28.35
2024-02-10T13:25:58.861Z,28.15
2024-02-10T13:28:25.696Z,29.23
2024-02-10T13:30:53.217Z,27.33
2024-02-10T13:33:20.097Z,30.80
2024-02-10T13:35:48.288Z,26.65
2024-02-10T13:38:28.979Z,27.58
2024-02-10T13:41:09.687Z,28.00
2024-02-10T13:43:50.425Z,29.77
2024-02-10T13:46:31.164Z,28.15
2024-02-10T13:49:11.822Z,28.23
2024-02-10T13:51:52.528Z,29.40
2024-02-10T13:54:33.173Z,28.40
2024-02-10T13:57:13.850Z,26.90
2024-02-10T13:59:40.601Z,28.25
2024-02-10T14:02:07.439Z,26.70
2024-02-10T14:04:48.476Z,31.33
2024-02-10T14:07:30.488Z,29.73
2024-02-10T14:10:09.600Z,33.20
2024-02-10T14:12:36.799Z,31.50
2024-02-10T14:15:07.900Z,29.23
2024-02-10T14:17:37.431Z,31.77
2024-02-10T14:20:19.743Z,32.50
2024-02-10T14:22:48.691Z,31.98
2024-02-10T14:25:25.236Z,31.85
2024-02-10T14:27:57.865Z,31.42
2024-02-10T14:30:32.951Z,32.00
2024-02-10T14:33:04.344Z,31.37
2024-02-10T14:35:49.372Z,33.45
2024-02-10T14:38:34.924Z,32.35
2024-02-10T14:41:05.800Z,33.30
2024-02-10T14:43:34.247Z,34.50
2024-02-10T14:46:04.168Z,32.50
2024-02-10T14:48:31.068Z,31.50
2024-02-10T14:51:03.409Z,31.85
2024-02-10T14:53:35.212Z,31.27
2024-02-10T14:56:14.265Z,32.45
2024-02-10T14:58:44.712Z,30.90
2024-02-10T15:01:11.993Z,31.48
2024-02-10T15:03:39.914Z,34.03
2024-02-10T15:06:09.996Z,31.77
2024-02-10T15:08:40.290Z,35.72
2024-02-10T15:11:08.287Z,35.93
2024-02-10T15:13:35.299Z,35.72
2024-02-10T15:16:02.107Z,33.17
2024-02-10T15:18:30.907Z,36.65
2024-02-10T15:20:57.871Z,35.25
2024-02-10T15:23:25.012Z,33.27
2024-02-10T15:25:54.674Z,33.67
2024-02-10T15:28:23.318Z,35.17
2024-02-10T15:30:51.386Z,36.35
2024-02-10T15:33:22.025Z,34.85
2024-02-10T15:35:50.315Z,37.63
2024-02-10T15:38:18.594Z,34.58
2024-02-10T15:40:51.628Z,35.33
2024-02-10T15:43:21.912Z,35.58
2024-02-10T15:45:48.934Z,33.88
2024-02-10T15:48:19.972Z,33.00
2024-02-10T15:50:47.888Z,34.78
2024-02-10T15:53:14.747Z,36.60
2024-02-10T15:55:42.353Z,34.75
2024-02-10T15:58:16.933Z,37.22
2024-02-10T16:00:50.097Z,36.70
2024-02-10T16:03:20.317Z,34.85
2024-02-10T16:05:50.094Z,35.70
2024-02-10T16:08:20.464Z,33.65
2024-02-10T16:10:48.549Z,36.25
2024-02-10T16:13:17.859Z,33.57
2024-02-10T16:15:44.988Z,36.45
2024-02-10T16:18:20.701Z,35.15
2024-02-10T16:20:48.260Z,37.63
2024-02-10T16:23:16.531Z,34.75
2024-02-10T16:25:44.275Z,35.10
2024-02-10T16:28:11.249Z,35.72
2024-02-10T16:30:40.961Z,36.15
2024-02-10T16:33:11.037Z,37.83
2024-02-10T16:35:38.649Z,37.42
2024-02-10T16:38:05.531Z,36.13
2024-02-10T16:40:32.791Z,37.30
2024-02-10T16:43:00.533Z,41.25
2024-02-10T16:45:28.028Z,36.90
2024-02-10T16:47:55.251Z,36.72
2024-02-10T16:50:24.340Z,39.47
2024-02-10T16:53:06.451Z,36.75
2024-02-10T16:55:38.359Z,43.13
2024-02-10T16:58:09.177Z,37.15
2024-02-10T17:00:40.245Z,36.72
2024-02-10T17:03:09.376Z,38.60
2024-02-10T17:05:58.968Z,37.13
2024-02-10T17:08:30.072Z,36.25
2024-02-10T17:10:57.149Z,41.42
2024-02-10T17:13:30.673Z,37.55
2024-02-10T17:15:57.712Z,36.83
2024-02-10T17:18:24.665Z,38.65
2024-02-10T17:20:53.585Z,43.55
2024-02-10T17:23:23.513Z,42.05
2024-02-10T17:25:52.035Z,40.55
2024-02-10T17:28:21.629Z,38.93
2024-02-10T17:30:51.199Z,42.00
2024-02-10T17:33:21.695Z,42.45
2024-02-10T17:35:51.760Z,42.95
2024-02-10T17:38:21.843Z,43.22
2024-02-10T17:40:49.158Z,41.23
2024-02-10T17:43:18.480Z,43.15
2024-02-10T17:45:45.924Z,37.97
2024-02-10T17:48:24.745Z,39.53
2024-02-10T17:50:52.803Z,40.45
2024-02-10T17:53:27.021Z,38.80
2024-02-10T17:55:56.244Z,44.08
2024-02-10T17:58:24.635Z,41.92
2024-02-10T18:00:52.301Z,39.80
2024-02-10T18:03:22.804Z,43.08
2024-02-10T18:05:56.256Z,41.90
2024-02-10T18:08:24.695Z,40.42
2024-02-10T18:10:51.789Z,41.05
2024-02-10T18:13:21.328Z,39.40
2024-02-10T18:15:48.351Z,39.25
2024-02-10T18:18:15.260Z,40.33
2024-02-10T18:20:42.309Z,39.47
2024-02-10T18:23:11.573Z,44.50
2024-02-10T18:25:43.441Z,40.75
2024-02-10T18:28:14.634Z,41.97
2024-02-10T18:30:46.394Z,41.23
2024-02-10T18:33:16.240Z,40.17
2024-02-10T18:35:49.106Z,40.47
2024-02-10T18:38:17.684Z,41.33
2024-02-10T18:40:45.002Z,40.88
2024-02-10T18:43:13.323Z,39.83
2024-02-10T18:45:45.619Z,42.65
2024-02-10T18:48:16.386Z,38.63
2024-02-10T18:50:44.453Z,40.58
2024-02-10T18:53:11.492Z,42.55
2024-02-10T18:55:39.341Z,45.70
2024-02-10T18:58:09.116Z,43.58
2024-02-10T19:00:36.136Z,42.28
2024-02-10T19:03:03.125Z,40.97
2024-02-10T19:05:30.080Z,41.00
2024-02-10T19:07:57.078Z,37.80
2024-02-10T19:10:25.124Z,44.72
2024-02-10T19:12:53.096Z,37.55
2024-02-10T19:15:19.962Z,40.03
2024-02-10T19:17:47.049Z,40.33
2024-02-10T19:20:17.863Z,39.23
2024-02-10T19:22:46.719Z,41.25
2024-02-10T19:25:17.348Z,40.55
2024-02-10T19:27:46.514Z,40.38
2024-02-10T19:30:14.137Z,40.33
2024-02-10T19:32:41.952Z,42.17
2024-02-10T19:35:17.424Z,41.38
2024-02-10T19:37:47.583Z,39.17
2024-02-10T19:40:18.840Z,37.88
2024-02-10T19:42:46.583Z,41.05
2024-02-10T19:45:16.738Z,39.90
2024-02-10T19:47:47.780Z,41.78
2024-02-10T19:50:15.830Z,39.95
2024-02-10T19:52:43.076Z,39.28
2024-02-10T19:55:10.759Z,40.63
2024-02-10T19:57:41.677Z,39.37
2024-02-10T20:00:14.107Z,40.42
2024-02-10T20:02:43.939Z,43.03
2024-02-10T20:05:11.428Z,40.55
2024-02-10T20:07:42.850Z,38.50
2024-02-10T20:10:10.474Z,38.23
2024-02-10T20:12:39.798Z,41.05
2024-02-10T20:15:07.269Z,42.55
2024-02-10T20:17:34.067Z,42.45
2024-02-10T20:20:18.994Z,42.63
2024-02-10T20:22:46.320Z,40.03
2024-02-10T20:25:13.742Z,43.60
2024-02-10T20:27:40.838Z,38.95
2024-02-10T20:30:10.794Z,43.35
2024-02-10T20:32:37.746Z,41.20
2024-02-10T20:35:05.057Z,46.60
2024-02-10T20:37:31.946Z,46.10
2024-02-10T20:39:58.714Z,42.17
2024-02-10T20:42:27.562Z,42.92
2024-02-10T20:44:54.419Z,42.85
2024-02-10T20:47:21.371Z,46.07
2024-02-10T20:49:48.226Z,42.15
2024-02-10T20:52:15.546Z,45.72
2024-02-10T20:54:44.421Z,42.58
2024-02-10T20:57:12.578Z,42.65
2024-02-10T20:59:39.880Z,43.20
2024-02-10T21:02:08.231Z,44.30
2024-02-10T21:04:35.507Z,46.75
2024-02-10T21:07:02.639Z,43.65
2024-02-10T21:09:30.685Z,47.42
2024-02-10T21:11:59.984Z,47.07
2024-02-10T21:14:28.285Z,47.75
2024-02-10T21:16:59.037Z,43.55
2024-02-10T21:19:26.132Z,44.17
2024-02-10T21:21:53.112Z,45.13
2024-02-10T21:24:22.174Z,41.43
2024-02-10T21:26:50.342Z,44.33
2024-02-10T21:29:17.492Z,47.10
2024-02-10T21:31:44.577Z,46.08
2024-02-10T21:34:12.646Z,47.00
2024-02-10T21:36:39.594Z,43.73
2024-02-10T21:39:17.419Z,45.75
2024-02-10T21:41:44.795Z,47.83
2024-02-10T21:44:11.816Z,46.50
2024-02-10T21:46:39.068Z,45.92
2024-02-10T21:49:05.939Z,44.47
2024-02-10T21:51:37.323Z,49.17
2024-02-10T21:54:06.289Z,47.30
2024-02-10T21:56:43.359Z,46.70
2024-02-10T21:59:13.157Z,46.50
2024-02-10T22:01:40.666Z,43.13
2024-02-10T22:04:07.985Z,45.50
2024-02-10T22:06:35.184Z,45.50
2024-02-10T22:09:03.100Z,41.95
2024-02-10T22:11:29.956Z,48.03
2024-02-10T22:13:56.819Z,44.87
2024-02-10T22:16:23.642Z,44.80
2024-02-10T22:18:51.111Z,46.55
2024-02-10T22:21:18.000Z,52.00
2024-02-10T22:23:44.872Z,44.50
2024-02-10T22:26:14.016Z,46.23
2024-02-10T22:28:42.051Z,51.05
2024-02-10T22:31:08.853Z,43.53
2024-02-10T22:33:36.475Z,47.72
2024-02-10T22:36:11.509Z,46.78
2024-02-10T22:38:39.592Z,47.50
2024-02-10T22:41:07.408Z,46.50
2024-02-10T22:43:34.407Z,48.58
2024-02-10T22:46:01.301Z,46.60
2024-02-10T22:48:28.227Z,49.15
2024-02-10T22:50:55.153Z,43.60
2024-02-10T22:53:23.436Z,44.85
2024-02-10T22:55:50.518Z,43.50
2024-02-10T22:58:17.366Z,51.08
2024-02-10T23:00:47.018Z,47.78
2024-02-10T23:03:15.558Z,45.57
2024-02-10T23:05:43.072Z,45.97
2024-02-10T23:08:14.276Z,47.63
2024-02-10T23:10:41.346Z,49.08
2024-02-10T23:13:08.491Z,46.13
2024-02-10T23:15:41.856Z,47.23
2024-02-10T23:18:12.239Z,42.90
2024-02-10T23:20:42.678Z,48.20
2024-02-10T23:23:19.560Z,44.92
2024-02-10T23:25:50.402Z,47.17
2024-02-10T23:28:17.655Z,46.53
2024-02-10T23:30:52.123Z,51.42
2024-02-10T23:33:27.753Z,47.47
2024-02-10T23:35:57.208Z,45.13
2024-02-10T23:38:28.121Z,49.80
2024-02-10T23:40:56.817Z,46.93
2024-02-10T23:43:24.197Z,44.47
2024-02-10T23:45:51.537Z,43.42
2024-02-10T23:48:20.918Z,46.50
2024-02-10T23:50:48.518Z,45.47
2024-02-10T23:53:15.913Z,44.63
2024-02-10T23:55:47.388Z,43.50
2024-02-10T23:58:14.388Z,47.78
